createdAt,value
2018-05-23T00:01:40.563Z,12.40
2018-05-23T00:05:43.288Z,12.30
2018-05-23T00:09:46.055Z,12.30
2018-05-23T00:13:48.738Z,12.20
2018-05-23T00:17:51.554Z,12.20
2018-05-23T00:21:55.038Z,12.10
2018-05-23T00:25:58.809Z,12.00
2018-05-23T00:30:01.584Z,12.00
2018-05-23T00:34:04.345Z,11.90
2018-05-23T00:38:07.040Z,11.90
2018-05-23T00:42:09.828Z,11.90
2018-05-23T00:46:13.406Z,11.80
2018-05-23T00:50:16.119Z,11.70
2018-05-23T00:54:19.643Z,11.80
2018-05-23T00:58:22.533Z,11.70
2018-05-23T01:02:25.256Z,11.70
2018-05-23T01:06:28.717Z,11.60
2018-05-23T01:10:31.433Z,11.60
2018-05-23T01:14:34.206Z,11.50
2018-05-23T01:18:36.914Z,11.50
2018-05-23T01:22:39.765Z,11.40
2018-05-23T01:26:42.487Z,11.40
2018-05-23T01:30:45.306Z,11.40
2018-05-23T01:34:48.004Z,11.40
2018-05-23T01:38:50.766Z,11.40
2018-05-23T01:42:53.555Z,11.40
2018-05-23T01:46:56.361Z,11.40
2018-05-23T01:50:59.142Z,11.40
2018-05-23T01:55:01.900Z,11.30
2018-05-23T01:59:04.676Z,11.20
2018-05-23T02:03:07.407Z,11.20
2018-05-23T02:07:10.159Z,11.20
2018-05-23T02:11:12.905Z,11.10
2018-05-23T02:15:15.749Z,11.10
2018-05-23T02:19:18.449Z,11.10
2018-05-23T02:23:21.169Z,11.00
2018-05-23T02:27:23.881Z,11.00
2018-05-23T02:31:26.648Z,11.10
2018-05-23T02:35:29.384Z,11.00
2018-05-23T02:39:32.144Z,11.00
2018-05-23T02:43:34.834Z,11.00
2018-05-23T02:47:37.549Z,10.90
2018-05-23T02:51:41.003Z,10.90
2018-05-23T02:55:44.541Z,10.90
2018-05-23T02:59:47.259Z,10.90
2018-05-23T03:03:49.957Z,11.00
2018-05-23T03:07:52.779Z,11.00
2018-05-23T03:11:55.492Z,10.80
2018-05-23T03:15:58.206Z,10.70
2018-05-23T03:20:01.783Z,10.70
2018-05-23T03:24:04.539Z,10.70
2018-05-23T03:28:07.229Z,10.70
2018-05-23T03:32:10.003Z,10.70
2018-05-23T03:36:13.501Z,10.80
2018-05-23T03:40:16.213Z,10.80
2018-05-23T03:44:19.694Z,11.00
2018-05-23T03:48:22.499Z,11.00
2018-05-23T03:52:25.294Z,11.10
2018-05-23T03:56:28.039Z,11.30
2018-05-23T04:00:42.700Z,11.50
2018-05-23T04:04:57.302Z,11.60
2018-05-23T04:09:01.269Z,11.70
2018-05-23T04:13:04.825Z,11.70
2018-05-23T04:17:07.550Z,11.70
2018-05-23T04:21:10.331Z,11.90
2018-05-23T04:25:13.036Z,12.10
2018-05-23T04:29:15.827Z,12.10
2018-05-23T04:33:18.677Z,12.20
2018-05-23T04:37:22.211Z,12.40
2018-05-23T04:41:24.932Z,12.40
2018-05-23T04:45:27.872Z,12.60
2018-05-23T04:49:30.586Z,12.60
2018-05-23T04:53:34.108Z,12.90
2018-05-23T04:57:37.659Z,13.00
2018-05-23T05:01:40.401Z,13.00
2018-05-23T05:05:44.009Z,13.20
2018-05-23T05:09:46.701Z,13.20
2018-05-23T05:13:49.427Z,13.40
2018-05-23T05:17:52.164Z,13.40
2018-05-23T05:21:55.705Z,13.30
2018-05-23T05:25:58.409Z,13.30
2018-05-23T05:30:01.221Z,13.50
2018-05-23T05:34:04.041Z,13.80
2018-05-23T05:38:06.800Z,14.10
2018-05-23T05:42:09.517Z,14.30
2018-05-23T05:46:12.987Z,14.50
2018-05-23T05:50:20.241Z,14.50
2018-05-23T05:54:22.944Z,14.60
2018-05-23T05:58:25.644Z,14.80
2018-05-23T06:02:28.414Z,15.00
2018-05-23T06:06:31.959Z,15.40
2018-05-23T06:10:34.649Z,15.40
2018-05-23T06:14:37.344Z,15.50
2018-05-23T06:18:40.075Z,15.70
2018-05-23T06:22:43.635Z,15.90
2018-05-23T06:26:46.421Z,15.90
2018-05-23T06:30:49.384Z,16.00
2018-05-23T06:34:52.106Z,16.20
2018-05-23T06:38:54.813Z,16.30
2018-05-23T06:42:57.500Z,16.40
2018-05-23T06:47:00.214Z,16.60
2018-05-23T06:51:03.791Z,16.90
2018-05-23T06:55:06.503Z,16.80
2018-05-23T06:59:09.283Z,17.00
2018-05-23T07:03:12.007Z,17.30
2018-05-23T07:07:21.141Z,17.50
2018-05-23T07:11:23.993Z,17.70
2018-05-23T07:15:26.711Z,17.90
2018-05-23T07:19:29.430Z,18.10
2018-05-23T07:23:32.276Z,18.30
2018-05-23T07:27:34.994Z,18.50
2018-05-23T07:31:37.716Z,18.70
2018-05-23T07:35:40.464Z,18.90
2018-05-23T07:39:43.149Z,19.10
2018-05-23T07:43:46.639Z,19.60
2018-05-23T07:47:49.400Z,19.50
2018-05-23T07:51:52.109Z,19.70
2018-05-23T07:55:54.853Z,19.80
2018-05-23T07:59:58.441Z,20.20
2018-05-23T08:04:01.132Z,20.20
2018-05-23T08:08:03.884Z,20.40
2018-05-23T08:12:06.646Z,20.50
2018-05-23T08:16:10.129Z,20.90
2018-05-23T08:20:14.355Z,21.10
2018-05-23T08:24:19.109Z,21.20
2018-05-23T08:28:22.000Z,21.50
2018-05-23T08:32:24.713Z,21.60
2018-05-23T08:36:27.534Z,22.00
2018-05-23T08:40:30.295Z,21.80
2018-05-23T08:44:33.018Z,22.20
2018-05-23T08:48:35.829Z,22.70
2018-05-23T08:52:38.629Z,23.40
2018-05-23T08:56:42.152Z,25.20
2018-05-23T09:00:44.933Z,25.10
2018-05-23T09:04:48.577Z,25.20
2018-05-23T09:08:51.296Z,25.20
2018-05-23T09:12:54.064Z,25.40
2018-05-23T09:16:56.845Z,25.80
2018-05-23T09:21:00.327Z,25.80
2018-05-23T09:25:03.913Z,26.20
2018-05-23T09:29:06.658Z,26.20
2018-05-23T09:33:09.421Z,26.40
2018-05-23T09:37:12.138Z,26.60
2018-05-23T09:41:14.912Z,26.70
2018-05-23T09:45:17.610Z,26.70
2018-05-23T09:49:20.326Z,28.10
2018-05-23T09:53:23.054Z,28.50
2018-05-23T09:57:26.543Z,26.50
2018-05-23T10:01:29.356Z,26.50
2018-05-23T10:05:32.174Z,28.00
2018-05-23T10:09:34.892Z,29.40
2018-05-23T10:13:37.657Z,28.70
2018-05-23T10:17:41.133Z,30.50
2018-05-23T10:21:44.681Z,30.70
2018-05-23T10:25:48.201Z,31.10
2018-05-23T10:29:51.797Z,30.90
2018-05-23T10:33:55.287Z,30.40
2018-05-23T10:37:57.997Z,30.40
2018-05-23T10:42:00.701Z,29.90
2018-05-23T10:46:03.473Z,29.70
2018-05-23T10:50:06.195Z,30.80
2018-05-23T10:54:08.946Z,32.20
2018-05-23T10:58:11.653Z,30.50
2018-05-23T11:02:14.392Z,28.70
2018-05-23T11:06:17.112Z,29.60
2018-05-23T11:10:20.603Z,27.80
2018-05-23T11:14:23.326Z,27.80
2018-05-23T11:18:26.849Z,29.30
2018-05-23T11:22:29.571Z,29.30
2018-05-23T11:26:33.176Z,29.00
2018-05-23T11:30:35.958Z,29.20
2018-05-23T11:34:39.462Z,28.50
2018-05-23T11:38:42.945Z,28.90
2018-05-23T11:42:45.695Z,28.90
2018-05-23T11:46:48.419Z,28.20
2018-05-23T11:50:51.127Z,30.00
2018-05-23T11:54:53.934Z,30.30
2018-05-23T11:58:56.676Z,31.40
2018-05-23T12:02:59.416Z,31.70
2018-05-23T12:07:02.137Z,31.80
2018-05-23T12:11:04.880Z,29.60
2018-05-23T12:15:07.829Z,29.30
2018-05-23T12:19:10.673Z,30.20
2018-05-23T12:23:14.827Z,30.30
2018-05-23T12:27:17.769Z,30.30
2018-05-23T12:31:22.068Z,30.40
2018-05-23T12:35:31.666Z,30.30
2018-05-23T12:39:48.908Z,29.20
2018-05-23T12:43:53.068Z,28.30
2018-05-23T12:48:04.018Z,27.10
2018-05-23T12:56:55.949Z,27.00
2018-05-23T13:01:01.342Z,26.50
2018-05-23T13:13:34.329Z,26.90
2018-05-23T13:17:37.101Z,28.00
2018-05-23T13:21:39.844Z,31.40
2018-05-23T13:25:43.495Z,29.80
2018-05-23T13:29:47.049Z,29.20
2018-05-23T13:33:49.789Z,29.10
2018-05-23T13:37:53.542Z,30.60
2018-05-23T13:41:56.421Z,31.90
2018-05-23T13:46:00.272Z,34.00
2018-05-23T13:50:03.405Z,34.10
2018-05-23T13:54:06.994Z,35.30
2018-05-23T13:58:09.779Z,33.50
2018-05-23T14:02:13.367Z,33.60
2018-05-23T14:06:16.339Z,33.60
2018-05-23T14:10:19.090Z,33.10
2018-05-23T14:14:23.924Z,29.90
2018-05-23T14:18:27.499Z,28.60
2018-05-23T14:22:30.230Z,28.50
2018-05-23T14:26:32.942Z,27.30
2018-05-23T14:30:36.543Z,26.30
2018-05-23T14:34:39.400Z,26.20
2018-05-23T14:38:42.292Z,25.50
2018-05-23T14:42:45.132Z,24.80
2018-05-23T14:46:48.137Z,24.40
2018-05-23T14:50:51.106Z,24.00
2018-05-23T14:54:54.622Z,24.10
2018-05-23T14:58:57.402Z,24.10
2018-05-23T15:03:00.358Z,24.20
2018-05-23T15:07:03.079Z,24.30
2018-05-23T15:11:06.576Z,24.60
2018-05-23T15:15:09.984Z,24.60
2018-05-23T15:19:12.676Z,24.90
2018-05-23T15:23:15.550Z,25.30
2018-05-23T15:27:18.286Z,27.60
2018-05-23T15:31:21.055Z,27.60
2018-05-23T15:35:23.928Z,28.50
2018-05-23T15:39:26.681Z,28.50
2018-05-23T15:43:30.179Z,26.40
2018-05-23T15:47:32.944Z,26.40
2018-05-23T15:51:35.651Z,24.70
2018-05-23T15:55:38.368Z,23.30
2018-05-23T15:59:41.081Z,22.40
2018-05-23T16:03:44.688Z,20.70
2018-05-23T16:07:47.878Z,20.60
2018-05-23T16:11:50.695Z,20.30
2018-05-23T16:15:55.070Z,20.00
2018-05-23T16:19:57.787Z,19.80
2018-05-23T16:24:00.497Z,19.60
2018-05-23T16:28:03.451Z,19.20
2018-05-23T16:32:06.211Z,19.00
2018-05-23T16:36:09.697Z,18.90
2018-05-23T16:40:12.421Z,18.90
2018-05-23T16:44:15.414Z,19.00
2018-05-23T16:48:18.156Z,19.10
2018-05-23T16:52:21.845Z,19.40
2018-05-23T16:56:24.637Z,19.40
2018-05-23T17:00:27.661Z,19.50
2018-05-23T17:04:31.605Z,19.50
2018-05-23T17:08:34.416Z,19.50
2018-05-23T17:12:38.176Z,19.50
2018-05-23T17:16:40.795Z,19.60
2018-05-23T17:20:44.693Z,19.60
2018-05-23T17:24:47.603Z,19.70
2018-05-23T17:28:50.403Z,19.70
2018-05-23T17:32:53.198Z,19.60
2018-05-23T17:36:56.001Z,19.50
2018-05-23T17:40:59.996Z,19.40
2018-05-23T17:45:03.043Z,19.40
2018-05-23T17:49:06.650Z,19.40
2018-05-23T17:53:11.818Z,19.40
2018-05-23T17:57:14.962Z,19.30
2018-05-23T18:01:17.952Z,19.10
2018-05-23T18:05:21.432Z,19.00
2018-05-23T18:09:24.520Z,18.80
2018-05-23T18:13:27.828Z,18.80
2018-05-23T18:17:30.896Z,18.70
2018-05-23T18:21:33.693Z,18.70
2018-05-23T18:25:36.801Z,18.60
2018-05-23T18:29:39.971Z,18.40
2018-05-23T18:33:42.921Z,18.30
2018-05-23T18:37:46.052Z,18.00
2018-05-23T18:41:48.801Z,17.80
2018-05-23T18:45:51.795Z,17.60
2018-05-23T18:49:54.840Z,17.50
2018-05-23T18:53:57.698Z,17.40
2018-05-23T18:58:00.511Z,17.40
2018-05-23T19:02:03.504Z,17.30
2018-05-23T19:06:06.448Z,17.20
2018-05-23T19:10:09.176Z,17.20
2018-05-23T19:14:12.806Z,17.40
2018-05-23T19:18:16.273Z,17.50
2018-05-23T19:22:19.433Z,17.50
2018-05-23T19:26:23.182Z,17.50
2018-05-23T19:30:26.108Z,17.50
2018-05-23T19:34:29.040Z,17.40
2018-05-23T19:38:32.981Z,17.10
2018-05-23T19:42:35.812Z,17.10
2018-05-23T19:46:39.573Z,17.00
2018-05-23T19:50:42.572Z,16.90
2018-05-23T19:54:45.513Z,16.80
2018-05-23T19:58:48.379Z,16.80
2018-05-23T20:02:52.204Z,16.80
2018-05-23T20:06:56.658Z,16.80
2018-05-23T20:11:00.191Z,16.80
2018-05-23T20:15:03.475Z,16.70
2018-05-23T20:19:09.285Z,16.70
2018-05-23T20:23:15.547Z,16.70
2018-05-23T20:27:23.798Z,16.80
2018-05-23T20:31:30.354Z,16.80
2018-05-23T20:35:38.246Z,16.90
2018-05-23T20:39:44.673Z,16.90
2018-05-23T20:43:52.910Z,16.90
2018-05-23T20:48:01.064Z,16.80
2018-05-23T20:52:07.730Z,16.90
2018-05-23T20:56:14.436Z,16.90
2018-05-23T21:00:21.694Z,16.80
2018-05-23T21:04:29.299Z,16.70
2018-05-23T21:08:37.086Z,16.70
2018-05-23T21:12:44.360Z,16.70
2018-05-23T21:16:51.682Z,16.60
2018-05-23T21:20:59.945Z,16.60
2018-05-23T21:25:06.359Z,16.70
2018-05-23T21:29:13.488Z,16.70
2018-05-23T21:33:20.237Z,16.70
2018-05-23T21:37:27.343Z,16.50
2018-05-23T21:41:34.557Z,16.50
2018-05-23T21:45:43.275Z,16.40
2018-05-23T21:49:49.195Z,16.40
2018-05-23T21:53:57.571Z,16.30
2018-05-23T21:58:03.364Z,16.40
2018-05-23T22:02:10.293Z,16.30
2018-05-23T22:06:16.371Z,16.30
2018-05-23T22:10:23.693Z,16.30
2018-05-23T22:14:30.649Z,16.20
2018-05-23T22:18:37.053Z,16.20
2018-05-23T22:22:44.399Z,16.20
2018-05-23T22:26:50.513Z,16.30
2018-05-23T22:30:53.877Z,16.30
2018-05-23T22:34:56.738Z,16.20
2018-05-23T22:38:59.550Z,16.10
2018-05-23T22:43:02.369Z,16.10
2018-05-23T22:47:06.338Z,15.90
2018-05-23T22:51:09.277Z,15.90
2018-05-23T22:55:12.549Z,15.90
2018-05-23T22:59:15.669Z,15.70
2018-05-23T23:03:19.784Z,15.60
2018-05-23T23:07:22.742Z,15.60
2018-05-23T23:11:26.213Z,15.60
2018-05-23T23:15:29.917Z,15.40
2018-05-23T23:19:32.945Z,15.40
2018-05-23T23:23:35.871Z,15.40
2018-05-23T23:27:39.000Z,15.30
2018-05-23T23:31:42.233Z,15.30
2018-05-23T23:35:45.319Z,15.20
2018-05-23T23:39:48.289Z,15.10
2018-05-23T23:43:51.530Z,15.00
2018-05-23T23:47:54.509Z,14.90
2018-05-23T23:51:57.761Z,15.00
2018-05-23T23:56:01.489Z,15.00
